Startpagina
METAR-TAF:

METAR-TAF

Vliegvelden :

Luchthaven Rabat-Sale

Rabat, Marokko

breedte: 34-03N, lengte: 006-46W, hoogte: 84 m

Actueel weer

Dit bericht is 11 minuten geleden gemaakt, om 17:00 UTC
Wind 8 kt uit het noordnoordwesten, variërend tussen het westen en het noordnoordoosten
Temperatuur 23°C
Vochtigheid 65%
Druk 1017 hPa
Zicht 10 km of meer
geen wolken onder 1500 m en geen cumulonimbus

METAR: GMME 151700Z 33008KT 280V020 CAVOK 23/16 Q1017 NOSIG

Tijdstip: 18:11 (17:11 UTC)

Verwachting

Dit bericht is 6 uur en het 11 minuten geleden gemaakt, om 11:00 UTC
Verwachting geldig van 15 om 12 UTC tot 16 om 18 UTC
Wind 10 kt uit het noordwesten
Zicht: 6000 m
Verspreide wolken op 1500 ft

TAF: GMME 151100Z 1512/1618 32010KT 6000 SCT015

Waarnemingen en weersverwachtingen van meer dan 4000 vliegvelden (METAR en TAF).

De beschikbare stations zijn de gele en rode punten op de kaart.

Ga met uw muis naar het station om de naam te zien.

Klik dan om waarnemingen en weersverwachtingen te zien.

kaart wijzigen: klik op de groene knoppen met een zwart kruis om in te zoomen, op de groene knop met een streepje om uit te zoomen of op de groene pijlen voor aangrenzende kaarten.


METAR-TAF: